sensor_id;sensor_type;location;lat;lon;timestamp;P1;durP1;ratioP1;P2;durP2;ratioP2
78716;SDS011;68045;50.042;14.432;2023-10-13T00:00:29;11.52;;;6.50;;
78716;SDS011;68045;50.042;14.432;2023-10-13T00:04:55;13.20;;;7.15;;
78716;SDS011;68045;50.042;14.432;2023-10-13T00:08:57;13.85;;;7.07;;
78716;SDS011;68045;50.042;14.432;2023-10-13T00:12:58;16.48;;;7.38;;
78716;SDS011;68045;50.042;14.432;2023-10-13T00:17:16;11.35;;;6.40;;
78716;SDS011;68045;50.042;14.432;2023-10-13T00:21:20;11.32;;;6.57;;
78716;SDS011;68045;50.042;14.432;2023-10-13T00:25:33;12.50;;;6.65;;
78716;SDS011;68045;50.042;14.432;2023-10-13T00:29:44;8.60;;;5.97;;
78716;SDS011;68045;50.042;14.432;2023-10-13T00:33:45;13.30;;;6.70;;
78716;SDS011;68045;50.042;14.432;2023-10-13T00:37:45;17.77;;;7.25;;
78716;SDS011;68045;50.042;14.432;2023-10-13T00:41:47;14.68;;;6.63;;
78716;SDS011;68045;50.042;14.432;2023-10-13T00:46:00;13.65;;;6.45;;
78716;SDS011;68045;50.042;14.432;2023-10-13T00:50:08;11.40;;;6.43;;
78716;SDS011;68045;50.042;14.432;2023-10-13T00:54:13;12.98;;;7.28;;
78716;SDS011;68045;50.042;14.432;2023-10-13T00:58:17;17.27;;;7.03;;
78716;SDS011;68045;50.042;14.432;2023-10-13T01:02:23;14.30;;;7.65;;
78716;SDS011;68045;50.042;14.432;2023-10-13T01:06:36;15.95;;;7.68;;
78716;SDS011;68045;50.042;14.432;2023-10-13T01:10:38;14.50;;;7.00;;
78716;SDS011;68045;50.042;14.432;2023-10-13T01:14:42;11.95;;;7.15;;
78716;SDS011;68045;50.042;14.432;2023-10-13T01:18:44;9.90;;;6.50;;
78716;SDS011;68045;50.042;14.432;2023-10-13T01:22:48;15.02;;;7.22;;
78716;SDS011;68045;50.042;14.432;2023-10-13T01:26:57;19.55;;;7.25;;
78716;SDS011;68045;50.042;14.432;2023-10-13T01:30:59;10.15;;;6.25;;
78716;SDS011;68045;50.042;14.432;2023-10-13T01:35:00;11.73;;;7.03;;
78716;SDS011;68045;50.042;14.432;2023-10-13T01:39:07;11.43;;;6.80;;
78716;SDS011;68045;50.042;14.432;2023-10-13T01:43:11;11.68;;;6.15;;
78716;SDS011;68045;50.042;14.432;2023-10-13T01:47:14;12.82;;;6.18;;
78716;SDS011;68045;50.042;14.432;2023-10-13T01:55:17;9.75;;;5.82;;
78716;SDS011;68045;50.042;14.432;2023-10-13T01:59:20;13.80;;;6.07;;
78716;SDS011;68045;50.042;14.432;2023-10-13T02:07:23;19.02;;;7.18;;
78716;SDS011;68045;50.042;14.432;2023-10-13T02:11:30;9.40;;;6.35;;
78716;SDS011;68045;50.042;14.432;2023-10-13T02:15:31;11.63;;;6.20;;
78716;SDS011;68045;50.042;14.432;2023-10-13T02:19:35;18.13;;;6.85;;
78716;SDS011;68045;50.042;14.432;2023-10-13T02:23:36;14.07;;;6.40;;
78716;SDS011;68045;50.042;14.432;2023-10-13T02:27:46;13.93;;;6.05;;
78716;SDS011;68045;50.042;14.432;2023-10-13T02:31:59;18.45;;;7.00;;
78716;SDS011;68045;50.042;14.432;2023-10-13T02:36:05;12.05;;;6.30;;
78716;SDS011;68045;50.042;14.432;2023-10-13T02:40:06;11.27;;;6.90;;
78716;SDS011;68045;50.042;14.432;2023-10-13T02:44:07;16.58;;;6.28;;
78716;SDS011;68045;50.042;14.432;2023-10-13T02:48:08;10.13;;;5.70;;
78716;SDS011;68045;50.042;14.432;2023-10-13T02:52:17;11.23;;;6.65;;
78716;SDS011;68045;50.042;14.432;2023-10-13T02:56:18;11.15;;;6.63;;
78716;SDS011;68045;50.042;14.432;2023-10-13T03:00:22;10.32;;;6.85;;
78716;SDS011;68045;50.042;14.432;2023-10-13T03:04:24;13.05;;;6.55;;
78716;SDS011;68045;50.042;14.432;2023-10-13T03:08:26;13.25;;;6.85;;
78716;SDS011;68045;50.042;14.432;2023-10-13T03:12:27;10.30;;;6.15;;
78716;SDS011;68045;50.042;14.432;2023-10-13T03:16:34;13.65;;;7.10;;
78716;SDS011;68045;50.042;14.432;2023-10-13T03:20:37;12.93;;;6.95;;
78716;SDS011;68045;50.042;14.432;2023-10-13T03:24:42;12.57;;;6.97;;
78716;SDS011;68045;50.042;14.432;2023-10-13T03:28:47;14.55;;;7.70;;
78716;SDS011;68045;50.042;14.432;2023-10-13T03:32:52;10.32;;;6.93;;
78716;SDS011;68045;50.042;14.432;2023-10-13T03:36:57;14.13;;;6.78;;
78716;SDS011;68045;50.042;14.432;2023-10-13T03:40:58;13.23;;;6.18;;
78716;SDS011;68045;50.042;14.432;2023-10-13T03:45:08;14.40;;;6.70;;
78716;SDS011;68045;50.042;14.432;2023-10-13T03:49:11;17.05;;;7.00;;
78716;SDS011;68045;50.042;14.432;2023-10-13T03:53:13;13.65;;;7.40;;
78716;SDS011;68045;50.042;14.432;2023-10-13T03:57:14;17.83;;;7.05;;
78716;SDS011;68045;50.042;14.432;2023-10-13T04:01:17;16.95;;;7.70;;
78716;SDS011;68045;50.042;14.432;2023-10-13T04:05:17;16.77;;;7.97;;
78716;SDS011;68045;50.042;14.432;2023-10-13T04:09:36;13.13;;;7.05;;
78716;SDS011;68045;50.042;14.432;2023-10-13T04:13:37;16.98;;;7.95;;
78716;SDS011;68045;50.042;14.432;2023-10-13T04:17:56;14.00;;;7.07;;
78716;SDS011;68045;50.042;14.432;2023-10-13T04:21:58;14.40;;;7.45;;
78716;SDS011;68045;50.042;14.432;2023-10-13T04:25:59;19.05;;;7.38;;
78716;SDS011;68045;50.042;14.432;2023-10-13T04:30:21;13.93;;;7.10;;
78716;SDS011;68045;50.042;14.432;2023-10-13T04:34:39;11.75;;;6.35;;
78716;SDS011;68045;50.042;14.432;2023-10-13T04:38:40;13.85;;;6.82;;
78716;SDS011;68045;50.042;14.432;2023-10-13T04:43:02;15.82;;;7.00;;
78716;SDS011;68045;50.042;14.432;2023-10-13T04:47:26;17.48;;;7.78;;
78716;SDS011;68045;50.042;14.432;2023-10-13T04:51:29;14.80;;;8.00;;
78716;SDS011;68045;50.042;14.432;2023-10-13T04:55:49;12.88;;;8.20;;
78716;SDS011;68045;50.042;14.432;2023-10-13T05:00:08;16.15;;;9.15;;
78716;SDS011;68045;50.042;14.432;2023-10-13T05:04:09;15.90;;;8.02;;
78716;SDS011;68045;50.042;14.432;2023-10-13T05:08:30;14.50;;;7.97;;
78716;SDS011;68045;50.042;14.432;2023-10-13T05:12:50;13.27;;;7.00;;
78716;SDS011;68045;50.042;14.432;2023-10-13T05:17:09;11.93;;;6.63;;
78716;SDS011;68045;50.042;14.432;2023-10-13T05:21:28;13.00;;;6.70;;
78716;SDS011;68045;50.042;14.432;2023-10-13T05:25:48;12.93;;;7.10;;
78716;SDS011;68045;50.042;14.432;2023-10-13T05:30:08;16.38;;;7.07;;
78716;SDS011;68045;50.042;14.432;2023-10-13T05:34:28;11.27;;;7.00;;
78716;SDS011;68045;50.042;14.432;2023-10-13T05:38:47;11.95;;;6.53;;
78716;SDS011;68045;50.042;14.432;2023-10-13T05:43:07;12.48;;;7.05;;
78716;SDS011;68045;50.042;14.432;2023-10-13T05:47:26;14.00;;;7.00;;
78716;SDS011;68045;50.042;14.432;2023-10-13T05:51:45;13.68;;;6.60;;
78716;SDS011;68045;50.042;14.432;2023-10-13T05:56:07;12.13;;;6.60;;
78716;SDS011;68045;50.042;14.432;2023-10-13T06:00:26;15.48;;;6.72;;
78716;SDS011;68045;50.042;14.432;2023-10-13T06:04:46;10.38;;;6.32;;
78716;SDS011;68045;50.042;14.432;2023-10-13T06:09:05;10.27;;;6.32;;
78716;SDS011;68045;50.042;14.432;2023-10-13T06:13:25;12.65;;;6.60;;
78716;SDS011;68045;50.042;14.432;2023-10-13T06:17:45;11.90;;;5.85;;
78716;SDS011;68045;50.042;14.432;2023-10-13T06:22:04;15.82;;;6.38;;
78716;SDS011;68045;50.042;14.432;2023-10-13T06:26:24;12.57;;;6.22;;
78716;SDS011;68045;50.042;14.432;2023-10-13T06:30:52;12.10;;;5.88;;
78716;SDS011;68045;50.042;14.432;2023-10-13T06:34:57;10.45;;;6.13;;
78716;SDS011;68045;50.042;14.432;2023-10-13T06:38:58;16.00;;;6.47;;
78716;SDS011;68045;50.042;14.432;2023-10-13T06:43:17;9.70;;;5.72;;
78716;SDS011;68045;50.042;14.432;2023-10-13T06:47:22;12.02;;;5.60;;
78716;SDS011;68045;50.042;14.432;2023-10-13T06:51:23;13.52;;;6.20;;
78716;SDS011;68045;50.042;14.432;2023-10-13T06:55:27;11.35;;;6.28;;
78716;SDS011;68045;50.042;14.432;2023-10-13T06:59:28;10.00;;;5.95;;
78716;SDS011;68045;50.042;14.432;2023-10-13T07:03:33;11.93;;;5.93;;
78716;SDS011;68045;50.042;14.432;2023-10-13T07:07:33;10.13;;;6.38;;
78716;SDS011;68045;50.042;14.432;2023-10-13T07:11:36;9.95;;;5.85;;
78716;SDS011;68045;50.042;14.432;2023-10-13T07:15:43;10.77;;;5.60;;
78716;SDS011;68045;50.042;14.432;2023-10-13T07:19:48;12.82;;;5.93;;
78716;SDS011;68045;50.042;14.432;2023-10-13T07:23:53;9.50;;;4.90;;
78716;SDS011;68045;50.042;14.432;2023-10-13T07:28:12;9.23;;;5.80;;
78716;SDS011;68045;50.042;14.432;2023-10-13T07:32:16;10.05;;;5.03;;
78716;SDS011;68045;50.042;14.432;2023-10-13T07:36:24;10.95;;;5.45;;
78716;SDS011;68045;50.042;14.432;2023-10-13T07:40:28;7.22;;;4.13;;
78716;SDS011;68045;50.042;14.432;2023-10-13T07:44:29;11.48;;;5.18;;
78716;SDS011;68045;50.042;14.432;2023-10-13T07:48:33;9.68;;;4.50;;
78716;SDS011;68045;50.042;14.432;2023-10-13T07:52:34;9.20;;;5.20;;
78716;SDS011;68045;50.042;14.432;2023-10-13T07:56:41;9.48;;;4.68;;
78716;SDS011;68045;50.042;14.432;2023-10-13T08:00:42;9.90;;;4.85;;
78716;SDS011;68045;50.042;14.432;2023-10-13T08:04:45;10.25;;;5.13;;
78716;SDS011;68045;50.042;14.432;2023-10-13T08:08:47;9.68;;;4.32;;
78716;SDS011;68045;50.042;14.432;2023-10-13T08:12:53;7.78;;;4.15;;
78716;SDS011;68045;50.042;14.432;2023-10-13T08:16:55;9.18;;;4.20;;
78716;SDS011;68045;50.042;14.432;2023-10-13T08:21:08;11.80;;;5.13;;
78716;SDS011;68045;50.042;14.432;2023-10-13T08:25:17;7.40;;;4.30;;
78716;SDS011;68045;50.042;14.432;2023-10-13T08:33:28;6.80;;;4.20;;
78716;SDS011;68045;50.042;14.432;2023-10-13T08:37:32;10.13;;;4.72;;
78716;SDS011;68045;50.042;14.432;2023-10-13T08:41:46;9.25;;;5.00;;
78716;SDS011;68045;50.042;14.432;2023-10-13T08:46:10;9.13;;;4.43;;
78716;SDS011;68045;50.042;14.432;2023-10-13T08:50:25;8.85;;;5.00;;
78716;SDS011;68045;50.042;14.432;2023-10-13T08:54:48;8.05;;;4.25;;
78716;SDS011;68045;50.042;14.432;2023-10-13T08:59:03;8.85;;;4.97;;
78716;SDS011;68045;50.042;14.432;2023-10-13T09:03:05;12.60;;;4.43;;
78716;SDS011;68045;50.042;14.432;2023-10-13T09:07:25;11.98;;;5.22;;
78716;SDS011;68045;50.042;14.432;2023-10-13T09:11:26;15.15;;;5.13;;
78716;SDS011;68045;50.042;14.432;2023-10-13T09:15:30;11.45;;;4.75;;
78716;SDS011;68045;50.042;14.432;2023-10-13T09:19:51;13.25;;;4.82;;
78716;SDS011;68045;50.042;14.432;2023-10-13T09:23:59;12.07;;;5.03;;
78716;SDS011;68045;50.042;14.432;2023-10-13T09:28:17;11.05;;;4.97;;
78716;SDS011;68045;50.042;14.432;2023-10-13T09:32:19;10.90;;;4.85;;
78716;SDS011;68045;50.042;14.432;2023-10-13T09:36:21;10.25;;;4.85;;
78716;SDS011;68045;50.042;14.432;2023-10-13T09:40:22;12.68;;;5.03;;
78716;SDS011;68045;50.042;14.432;2023-10-13T09:44:32;9.43;;;4.43;;
78716;SDS011;68045;50.042;14.432;2023-10-13T09:48:34;13.35;;;5.03;;
78716;SDS011;68045;50.042;14.432;2023-10-13T09:52:36;10.75;;;4.47;;
78716;SDS011;68045;50.042;14.432;2023-10-13T09:56:50;10.18;;;4.65;;
78716;SDS011;68045;50.042;14.432;2023-10-13T10:00:56;6.68;;;4.63;;
78716;SDS011;68045;50.042;14.432;2023-10-13T10:05:07;10.00;;;5.18;;
78716;SDS011;68045;50.042;14.432;2023-10-13T10:09:32;10.00;;;4.78;;
78716;SDS011;68045;50.042;14.432;2023-10-13T10:17:55;10.50;;;4.72;;
78716;SDS011;68045;50.042;14.432;2023-10-13T10:22:02;10.75;;;4.80;;
78716;SDS011;68045;50.042;14.432;2023-10-13T10:26:18;8.07;;;4.72;;
78716;SDS011;68045;50.042;14.432;2023-10-13T10:34:30;11.05;;;4.90;;
78716;SDS011;68045;50.042;14.432;2023-10-13T10:38:33;15.48;;;5.15;;
78716;SDS011;68045;50.042;14.432;2023-10-13T10:42:34;9.35;;;4.35;;
78716;SDS011;68045;50.042;14.432;2023-10-13T10:46:35;11.50;;;4.97;;
78716;SDS011;68045;50.042;14.432;2023-10-13T10:50:40;12.57;;;4.72;;
78716;SDS011;68045;50.042;14.432;2023-10-13T10:54:41;12.63;;;4.85;;
78716;SDS011;68045;50.042;14.432;2023-10-13T10:58:48;12.30;;;4.63;;
78716;SDS011;68045;50.042;14.432;2023-10-13T11:02:55;13.52;;;5.18;;
78716;SDS011;68045;50.042;14.432;2023-10-13T11:06:56;8.20;;;4.53;;
78716;SDS011;68045;50.042;14.432;2023-10-13T11:10:58;10.75;;;5.00;;
78716;SDS011;68045;50.042;14.432;2023-10-13T11:15:05;8.80;;;4.70;;
78716;SDS011;68045;50.042;14.432;2023-10-13T11:19:37;10.45;;;4.47;;
78716;SDS011;68045;50.042;14.432;2023-10-13T11:23:38;11.35;;;5.00;;
78716;SDS011;68045;50.042;14.432;2023-10-13T11:27:40;10.35;;;5.00;;
78716;SDS011;68045;50.042;14.432;2023-10-13T11:31:56;10.30;;;5.03;;
78716;SDS011;68045;50.042;14.432;2023-10-13T11:35:59;12.55;;;4.40;;
78716;SDS011;68045;50.042;14.432;2023-10-13T11:40:04;10.65;;;4.90;;
78716;SDS011;68045;50.042;14.432;2023-10-13T11:44:13;12.45;;;5.40;;
78716;SDS011;68045;50.042;14.432;2023-10-13T11:48:24;16.50;;;5.28;;
78716;SDS011;68045;50.042;14.432;2023-10-13T11:52:36;13.32;;;5.07;;
78716;SDS011;68045;50.042;14.432;2023-10-13T11:56:37;9.02;;;4.47;;
78716;SDS011;68045;50.042;14.432;2023-10-13T12:00:39;11.80;;;4.32;;
78716;SDS011;68045;50.042;14.432;2023-10-13T12:04:54;10.18;;;3.88;;
78716;SDS011;68045;50.042;14.432;2023-10-13T12:08:57;10.05;;;4.10;;
78716;SDS011;68045;50.042;14.432;2023-10-13T12:13:11;14.65;;;4.07;;
78716;SDS011;68045;50.042;14.432;2023-10-13T12:17:12;9.18;;;4.05;;
78716;SDS011;68045;50.042;14.432;2023-10-13T12:21:18;9.38;;;4.32;;
78716;SDS011;68045;50.042;14.432;2023-10-13T12:25:20;11.13;;;4.22;;
78716;SDS011;68045;50.042;14.432;2023-10-13T12:29:33;11.88;;;4.60;;
78716;SDS011;68045;50.042;14.432;2023-10-13T12:33:35;11.95;;;4.30;;
78716;SDS011;68045;50.042;14.432;2023-10-13T12:37:41;10.57;;;4.45;;
78716;SDS011;68045;50.042;14.432;2023-10-13T12:41:44;10.93;;;4.15;;
78716;SDS011;68045;50.042;14.432;2023-10-13T12:46:03;10.05;;;3.97;;
78716;SDS011;68045;50.042;14.432;2023-10-13T12:54:47;9.50;;;3.50;;
78716;SDS011;68045;50.042;14.432;2023-10-13T12:58:58;10.95;;;4.13;;
78716;SDS011;68045;50.042;14.432;2023-10-13T13:03:00;11.05;;;4.22;;
78716;SDS011;68045;50.042;14.432;2023-10-13T13:07:01;11.57;;;4.38;;
78716;SDS011;68045;50.042;14.432;2023-10-13T13:11:06;15.82;;;4.50;;
78716;SDS011;68045;50.042;14.432;2023-10-13T13:15:07;9.95;;;4.57;;
78716;SDS011;68045;50.042;14.432;2023-10-13T13:19:09;10.38;;;4.10;;
78716;SDS011;68045;50.042;14.432;2023-10-13T13:23:14;9.25;;;4.53;;
78716;SDS011;68045;50.042;14.432;2023-10-13T13:27:16;12.25;;;4.32;;
78716;SDS011;68045;50.042;14.432;2023-10-13T13:31:22;9.38;;;4.55;;
78716;SDS011;68045;50.042;14.432;2023-10-13T13:35:30;9.68;;;4.63;;
78716;SDS011;68045;50.042;14.432;2023-10-13T13:39:35;7.82;;;4.25;;
78716;SDS011;68045;50.042;14.432;2023-10-13T13:43:37;8.90;;;4.72;;
78716;SDS011;68045;50.042;14.432;2023-10-13T13:47:38;12.48;;;4.10;;
78716;SDS011;68045;50.042;14.432;2023-10-13T13:51:39;10.65;;;5.00;;
78716;SDS011;68045;50.042;14.432;2023-10-13T13:55:40;11.52;;;5.05;;
78716;SDS011;68045;50.042;14.432;2023-10-13T13:59:40;12.90;;;4.35;;
78716;SDS011;68045;50.042;14.432;2023-10-13T14:03:45;11.20;;;4.15;;
78716;SDS011;68045;50.042;14.432;2023-10-13T14:07:47;14.60;;;4.75;;
78716;SDS011;68045;50.042;14.432;2023-10-13T14:11:51;11.15;;;4.30;;
78716;SDS011;68045;50.042;14.432;2023-10-13T14:16:10;11.82;;;4.38;;
78716;SDS011;68045;50.042;14.432;2023-10-13T14:20:16;11.70;;;4.88;;
78716;SDS011;68045;50.042;14.432;2023-10-13T14:24:20;9.55;;;4.18;;
78716;SDS011;68045;50.042;14.432;2023-10-13T14:28:28;9.40;;;4.38;;
78716;SDS011;68045;50.042;14.432;2023-10-13T14:32:35;7.60;;;3.80;;
78716;SDS011;68045;50.042;14.432;2023-10-13T14:36:41;7.43;;;4.53;;
78716;SDS011;68045;50.042;14.432;2023-10-13T14:40:41;9.27;;;4.10;;
78716;SDS011;68045;50.042;14.432;2023-10-13T14:44:42;9.85;;;4.03;;
78716;SDS011;68045;50.042;14.432;2023-10-13T14:48:43;14.65;;;3.78;;
78716;SDS011;68045;50.042;14.432;2023-10-13T14:52:45;9.18;;;4.18;;
78716;SDS011;68045;50.042;14.432;2023-10-13T14:56:46;6.47;;;3.60;;
78716;SDS011;68045;50.042;14.432;2023-10-13T15:00:47;8.15;;;4.10;;
78716;SDS011;68045;50.042;14.432;2023-10-13T15:04:49;11.70;;;4.35;;
78716;SDS011;68045;50.042;14.432;2023-10-13T15:08:50;11.38;;;4.30;;
78716;SDS011;68045;50.042;14.432;2023-10-13T15:12:54;8.30;;;3.95;;
78716;SDS011;68045;50.042;14.432;2023-10-13T15:16:55;11.90;;;4.07;;
78716;SDS011;68045;50.042;14.432;2023-10-13T15:21:00;7.55;;;4.20;;
78716;SDS011;68045;50.042;14.432;2023-10-13T15:25:01;5.25;;;3.40;;
78716;SDS011;68045;50.042;14.432;2023-10-13T15:29:37;10.05;;;4.10;;
78716;SDS011;68045;50.042;14.432;2023-10-13T15:33:38;14.32;;;3.75;;
78716;SDS011;68045;50.042;14.432;2023-10-13T15:37:43;7.35;;;3.97;;
78716;SDS011;68045;50.042;14.432;2023-10-13T15:41:47;9.23;;;4.00;;
78716;SDS011;68045;50.042;14.432;2023-10-13T15:45:53;9.98;;;3.80;;
78716;SDS011;68045;50.042;14.432;2023-10-13T15:49:54;6.82;;;3.92;;
78716;SDS011;68045;50.042;14.432;2023-10-13T15:53:56;9.75;;;3.90;;
78716;SDS011;68045;50.042;14.432;2023-10-13T15:57:57;12.20;;;3.90;;
78716;SDS011;68045;50.042;14.432;2023-10-13T16:01:58;9.98;;;3.70;;
78716;SDS011;68045;50.042;14.432;2023-10-13T16:06:02;11.00;;;3.78;;
78716;SDS011;68045;50.042;14.432;2023-10-13T16:10:11;8.50;;;3.95;;
78716;SDS011;68045;50.042;14.432;2023-10-13T16:14:12;8.32;;;3.92;;
78716;SDS011;68045;50.042;14.432;2023-10-13T16:18:17;11.77;;;3.83;;
78716;SDS011;68045;50.042;14.432;2023-10-13T16:22:22;10.02;;;3.78;;
78716;SDS011;68045;50.042;14.432;2023-10-13T16:26:23;12.80;;;3.92;;
78716;SDS011;68045;50.042;14.432;2023-10-13T16:30:26;8.75;;;3.70;;
78716;SDS011;68045;50.042;14.432;2023-10-13T16:34:29;8.25;;;3.67;;
78716;SDS011;68045;50.042;14.432;2023-10-13T16:38:30;9.82;;;3.90;;
78716;SDS011;68045;50.042;14.432;2023-10-13T16:42:31;9.45;;;3.55;;
78716;SDS011;68045;50.042;14.432;2023-10-13T16:46:38;13.90;;;3.45;;
78716;SDS011;68045;50.042;14.432;2023-10-13T16:50:40;9.93;;;4.00;;
78716;SDS011;68045;50.042;14.432;2023-10-13T16:54:41;10.05;;;4.15;;
78716;SDS011;68045;50.042;14.432;2023-10-13T16:58:43;9.70;;;3.88;;
78716;SDS011;68045;50.042;14.432;2023-10-13T17:06:46;9.25;;;4.55;;
78716;SDS011;68045;50.042;14.432;2023-10-13T17:10:47;9.63;;;4.15;;
78716;SDS011;68045;50.042;14.432;2023-10-13T17:14:52;9.10;;;4.60;;
78716;SDS011;68045;50.042;14.432;2023-10-13T17:18:54;12.77;;;4.53;;
78716;SDS011;68045;50.042;14.432;2023-10-13T17:22:55;11.93;;;4.43;;
78716;SDS011;68045;50.042;14.432;2023-10-13T17:26:56;10.05;;;4.88;;
78716;SDS011;68045;50.042;14.432;2023-10-13T17:30:57;12.13;;;4.22;;
78716;SDS011;68045;50.042;14.432;2023-10-13T17:34:58;10.77;;;4.60;;
78716;SDS011;68045;50.042;14.432;2023-10-13T17:39:01;15.45;;;4.88;;
78716;SDS011;68045;50.042;14.432;2023-10-13T17:43:02;7.90;;;4.40;;
78716;SDS011;68045;50.042;14.432;2023-10-13T17:47:05;8.93;;;4.30;;
78716;SDS011;68045;50.042;14.432;2023-10-13T17:51:11;9.98;;;4.68;;
78716;SDS011;68045;50.042;14.432;2023-10-13T17:55:13;12.88;;;4.70;;
78716;SDS011;68045;50.042;14.432;2023-10-13T17:59:17;9.93;;;4.90;;
78716;SDS011;68045;50.042;14.432;2023-10-13T18:03:18;9.52;;;4.97;;
78716;SDS011;68045;50.042;14.432;2023-10-13T18:07:19;8.52;;;4.50;;
78716;SDS011;68045;50.042;14.432;2023-10-13T18:11:21;12.73;;;4.90;;
78716;SDS011;68045;50.042;14.432;2023-10-13T18:15:26;14.07;;;4.70;;
78716;SDS011;68045;50.042;14.432;2023-10-13T18:19:29;11.00;;;4.75;;
78716;SDS011;68045;50.042;14.432;2023-10-13T18:23:30;9.05;;;4.10;;
78716;SDS011;68045;50.042;14.432;2023-10-13T18:27:31;11.05;;;4.38;;
78716;SDS011;68045;50.042;14.432;2023-10-13T18:31:32;12.77;;;4.57;;
78716;SDS011;68045;50.042;14.432;2023-10-13T18:35:34;9.57;;;4.00;;
78716;SDS011;68045;50.042;14.432;2023-10-13T18:39:37;9.18;;;4.75;;
78716;SDS011;68045;50.042;14.432;2023-10-13T18:43:41;7.97;;;4.50;;
78716;SDS011;68045;50.042;14.432;2023-10-13T18:51:45;9.40;;;4.35;;
78716;SDS011;68045;50.042;14.432;2023-10-13T18:55:47;12.43;;;4.05;;
78716;SDS011;68045;50.042;14.432;2023-10-13T18:59:47;11.55;;;4.80;;
78716;SDS011;68045;50.042;14.432;2023-10-13T19:03:48;11.88;;;5.00;;
78716;SDS011;68045;50.042;14.432;2023-10-13T19:07:49;14.43;;;4.25;;
78716;SDS011;68045;50.042;14.432;2023-10-13T19:11:50;11.88;;;4.82;;
78716;SDS011;68045;50.042;14.432;2023-10-13T19:15:51;10.35;;;4.90;;
78716;SDS011;68045;50.042;14.432;2023-10-13T19:20:00;8.15;;;3.65;;
78716;SDS011;68045;50.042;14.432;2023-10-13T19:24:04;12.80;;;4.78;;
78716;SDS011;68045;50.042;14.432;2023-10-13T19:32:09;9.07;;;4.72;;
78716;SDS011;68045;50.042;14.432;2023-10-13T19:36:10;7.30;;;4.13;;
78716;SDS011;68045;50.042;14.432;2023-10-13T19:40:15;11.80;;;5.03;;
78716;SDS011;68045;50.042;14.432;2023-10-13T19:44:15;10.30;;;4.95;;
78716;SDS011;68045;50.042;14.432;2023-10-13T19:48:16;14.52;;;5.30;;
78716;SDS011;68045;50.042;14.432;2023-10-13T19:52:17;15.55;;;4.35;;
78716;SDS011;68045;50.042;14.432;2023-10-13T19:56:22;11.38;;;5.03;;
78716;SDS011;68045;50.042;14.432;2023-10-13T20:00:23;9.45;;;4.60;;
78716;SDS011;68045;50.042;14.432;2023-10-13T20:04:33;10.82;;;4.65;;
78716;SDS011;68045;50.042;14.432;2023-10-13T20:08:36;15.95;;;5.68;;
78716;SDS011;68045;50.042;14.432;2023-10-13T20:12:37;9.95;;;5.15;;
78716;SDS011;68045;50.042;14.432;2023-10-13T20:16:41;13.00;;;4.47;;
78716;SDS011;68045;50.042;14.432;2023-10-13T20:20:44;11.02;;;4.65;;
78716;SDS011;68045;50.042;14.432;2023-10-13T20:24:45;12.75;;;4.97;;
78716;SDS011;68045;50.042;14.432;2023-10-13T20:28:46;9.77;;;4.22;;
78716;SDS011;68045;50.042;14.432;2023-10-13T20:32:47;11.63;;;4.53;;
78716;SDS011;68045;50.042;14.432;2023-10-13T20:36:49;12.32;;;4.47;;
78716;SDS011;68045;50.042;14.432;2023-10-13T20:41:00;10.60;;;5.07;;
78716;SDS011;68045;50.042;14.432;2023-10-13T20:45:02;10.93;;;4.60;;
78716;SDS011;68045;50.042;14.432;2023-10-13T20:49:04;10.23;;;4.78;;
78716;SDS011;68045;50.042;14.432;2023-10-13T20:53:05;11.95;;;5.00;;
78716;SDS011;68045;50.042;14.432;2023-10-13T20:57:06;12.15;;;4.85;;
78716;SDS011;68045;50.042;14.432;2023-10-13T21:01:11;7.38;;;4.05;;
78716;SDS011;68045;50.042;14.432;2023-10-13T21:05:14;10.88;;;4.60;;
78716;SDS011;68045;50.042;14.432;2023-10-13T21:09:16;15.10;;;4.90;;
78716;SDS011;68045;50.042;14.432;2023-10-13T21:13:22;11.20;;;4.15;;
78716;SDS011;68045;50.042;14.432;2023-10-13T21:21:25;8.60;;;4.25;;
78716;SDS011;68045;50.042;14.432;2023-10-13T21:25:26;8.70;;;3.40;;
78716;SDS011;68045;50.042;14.432;2023-10-13T21:29:27;8.98;;;4.15;;
78716;SDS011;68045;50.042;14.432;2023-10-13T21:33:28;8.07;;;4.47;;
78716;SDS011;68045;50.042;14.432;2023-10-13T21:37:31;7.72;;;4.38;;
78716;SDS011;68045;50.042;14.432;2023-10-13T21:41:32;10.32;;;4.43;;
78716;SDS011;68045;50.042;14.432;2023-10-13T21:45:37;10.77;;;4.18;;
78716;SDS011;68045;50.042;14.432;2023-10-13T21:49:38;10.93;;;4.32;;
78716;SDS011;68045;50.042;14.432;2023-10-13T21:53:41;11.88;;;4.65;;
78716;SDS011;68045;50.042;14.432;2023-10-13T21:57:46;9.18;;;4.20;;
78716;SDS011;68045;50.042;14.432;2023-10-13T22:01:50;8.70;;;4.50;;
78716;SDS011;68045;50.042;14.432;2023-10-13T22:05:51;8.00;;;4.72;;
78716;SDS011;68045;50.042;14.432;2023-10-13T22:09:51;11.98;;;4.70;;
78716;SDS011;68045;50.042;14.432;2023-10-13T22:13:52;13.10;;;5.05;;
78716;SDS011;68045;50.042;14.432;2023-10-13T22:17:53;9.75;;;4.85;;
78716;SDS011;68045;50.042;14.432;2023-10-13T22:21:54;15.40;;;4.93;;
78716;SDS011;68045;50.042;14.432;2023-10-13T22:25:55;11.70;;;4.45;;
78716;SDS011;68045;50.042;14.432;2023-10-13T22:29:56;10.57;;;4.60;;
78716;SDS011;68045;50.042;14.432;2023-10-13T22:33:58;8.43;;;4.30;;
78716;SDS011;68045;50.042;14.432;2023-10-13T22:37:59;10.25;;;4.63;;
78716;SDS011;68045;50.042;14.432;2023-10-13T22:41:59;11.00;;;4.57;;
78716;SDS011;68045;50.042;14.432;2023-10-13T22:46:01;8.77;;;4.38;;
78716;SDS011;68045;50.042;14.432;2023-10-13T22:50:02;9.05;;;4.03;;
78716;SDS011;68045;50.042;14.432;2023-10-13T22:54:03;11.65;;;4.70;;
78716;SDS011;68045;50.042;14.432;2023-10-13T22:58:05;10.75;;;4.22;;
78716;SDS011;68045;50.042;14.432;2023-10-13T23:02:09;8.90;;;3.92;;
78716;SDS011;68045;50.042;14.432;2023-10-13T23:06:14;10.05;;;4.85;;
78716;SDS011;68045;50.042;14.432;2023-10-13T23:10:21;9.73;;;4.35;;
78716;SDS011;68045;50.042;14.432;2023-10-13T23:14:33;11.88;;;4.38;;
78716;SDS011;68045;50.042;14.432;2023-10-13T23:18:34;14.38;;;4.63;;
78716;SDS011;68045;50.042;14.432;2023-10-13T23:22:35;7.35;;;3.92;;
78716;SDS011;68045;50.042;14.432;2023-10-13T23:26:35;10.45;;;3.92;;
78716;SDS011;68045;50.042;14.432;2023-10-13T23:30:42;11.95;;;4.72;;
78716;SDS011;68045;50.042;14.432;2023-10-13T23:34:47;9.85;;;3.78;;
78716;SDS011;68045;50.042;14.432;2023-10-13T23:38:48;14.70;;;4.00;;
78716;SDS011;68045;50.042;14.432;2023-10-13T23:43:00;8.68;;;3.53;;
78716;SDS011;68045;50.042;14.432;2023-10-13T23:47:06;9.60;;;4.03;;
78716;SDS011;68045;50.042;14.432;2023-10-13T23:51:11;12.27;;;4.10;;
78716;SDS011;68045;50.042;14.432;2023-10-13T23:55:22;11.57;;;2.88;;
78716;SDS011;68045;50.042;14.432;2023-10-13T23:59:22;9.43;;;3.58;;
